HAAB/ADD METAR and TAF weather

Enter ICAO airport designator
Station Type Date Time Source
HAAB METAR 2018/07/20 14:00 UTC NOAA

HAAB 201400Z 01004KT 330V050 9999 FEW023 CB BKN025 BKN070 17/13 Q1024


Station Type Date Time Source
HAAB Decoded METAR 2018/07/20 14:00 UTC NOAA

Addis Ababa, Ethiopia (HAAB) 08-59N 038-48E 2324M
Jul 20, 2018 - 10:00 AM EDT / 2018.07.20 1400 UTC
Wind: from the N (010 degrees) at 5 MPH (4 KT) (direction variable):0
Visibility: greater than 7 mile(s):0
Sky conditions: mostly cloudy
Weather: Cumulonimbus clouds observed
Temperature: 62 F (17 C)
Dew Point: 55 F (13 C)
Relative Humidity: 77%
Pressure (altimeter): 30.24 in. Hg (1024 hPa)
ob: HAAB 201400Z 01004KT 330V050 9999 FEW023 CB BKN025 BKN070 17/13 Q1024
cycle: 14

Station Type Date Time Source
HAAB TAF 2018/07/20 12:20 UTC NOAA

TAF HAAB 200930Z 2012/2118 28005KT 9999 BKN024 SCT030
BECMG 2017/2022
FM2100 TL2106 7000M RA OVC025


Example: see airport list